createdAt,value
2023-11-06T00:03:58.301Z,10.58
2023-11-06T00:08:59.915Z,10.58
2023-11-06T00:14:01.949Z,10.59
2023-11-06T00:19:03.780Z,10.55
2023-11-06T00:24:06.973Z,10.35
2023-11-06T00:29:08.603Z,10.40
2023-11-06T00:34:10.347Z,10.27
2023-11-06T00:39:13.637Z,10.25
2023-11-06T00:44:15.335Z,10.28
2023-11-06T00:49:16.979Z,10.30
2023-11-06T00:54:18.767Z,10.36
2023-11-06T00:59:21.766Z,10.32
2023-11-06T01:04:23.485Z,10.34
2023-11-06T01:09:25.865Z,10.32
2023-11-06T01:14:27.520Z,10.37
2023-11-06T01:19:29.181Z,10.36
2023-11-06T01:24:31.129Z,10.34
2023-11-06T01:29:32.789Z,10.36
2023-11-06T01:34:34.420Z,10.37
2023-11-06T01:39:36.031Z,10.24
2023-11-06T01:44:38.495Z,10.33
2023-11-06T01:49:41.495Z,10.28
2023-11-06T01:54:43.388Z,10.36
2023-11-06T01:59:45.435Z,10.41
2023-11-06T02:04:50.847Z,10.38
2023-11-06T02:09:53.746Z,10.45
2023-11-06T02:14:56.549Z,10.52
2023-11-06T02:20:00.305Z,10.57
2023-11-06T02:25:01.954Z,10.61
2023-11-06T02:30:03.932Z,10.70
2023-11-06T02:35:08.887Z,10.72
2023-11-06T02:40:13.486Z,10.78
2023-11-06T02:45:15.541Z,10.78
2023-11-06T02:50:17.248Z,10.73
2023-11-06T02:55:18.862Z,10.66
2023-11-06T03:00:22.042Z,10.60
2023-11-06T03:05:23.898Z,10.54
2023-11-06T03:10:25.721Z,10.46
2023-11-06T03:15:27.313Z,10.50
2023-11-06T03:20:28.909Z,10.46
2023-11-06T03:25:30.537Z,10.38
2023-11-06T03:30:32.125Z,10.33
2023-11-06T03:35:33.857Z,10.36
2023-11-06T03:40:35.460Z,10.40
2023-11-06T03:45:37.022Z,10.41
2023-11-06T03:50:43.863Z,10.38
2023-11-06T03:55:45.465Z,10.34
2023-11-06T04:00:48.004Z,10.39
2023-11-06T04:05:49.694Z,10.30
2023-11-06T04:10:51.382Z,10.30
2023-11-06T04:15:52.958Z,10.30
2023-11-06T04:20:55.535Z,10.30
2023-11-06T04:25:57.277Z,10.24
2023-11-06T04:30:58.865Z,10.21
2023-11-06T04:36:00.557Z,10.18
2023-11-06T04:41:02.191Z,10.11
2023-11-06T04:46:04.340Z,10.07
2023-11-06T04:51:06.523Z,10.04
2023-11-06T04:56:08.655Z,10.06
2023-11-06T05:01:10.339Z,9.98
2023-11-06T05:06:11.950Z,10.00
2023-11-06T05:11:14.086Z,10.02
2023-11-06T05:16:15.758Z,10.04
2023-11-06T05:21:27.454Z,10.04
2023-11-06T05:26:29.018Z,10.11
2023-11-06T05:31:30.903Z,10.13
2023-11-06T05:36:32.481Z,10.15
2023-11-06T05:41:34.128Z,10.17
2023-11-06T05:46:35.666Z,10.04
2023-11-06T05:51:38.958Z,10.05
2023-11-06T05:56:40.488Z,9.97
2023-11-06T06:01:42.030Z,9.95
2023-11-06T06:06:43.753Z,9.95
2023-11-06T06:11:46.607Z,10.00
2023-11-06T06:16:50.572Z,9.92
2023-11-06T06:21:52.241Z,9.83
2023-11-06T06:26:53.865Z,9.77
2023-11-06T06:31:56.051Z,9.78
2023-11-06T06:36:57.686Z,9.74
2023-11-06T06:41:59.268Z,9.77
2023-11-06T06:47:00.855Z,9.72
2023-11-06T06:52:02.587Z,9.73
2023-11-06T06:57:05.376Z,9.87
2023-11-06T07:02:07.003Z,9.85
2023-11-06T07:07:08.758Z,9.95
2023-11-06T07:12:10.387Z,10.03
2023-11-06T07:17:12.016Z,10.13
2023-11-06T07:22:13.610Z,10.24
2023-11-06T07:27:15.291Z,10.33
2023-11-06T07:32:17.100Z,10.44
2023-11-06T07:37:18.817Z,10.50
2023-11-06T07:42:20.408Z,10.55
2023-11-06T07:47:22.026Z,10.72
2023-11-06T07:52:23.635Z,10.82
2023-11-06T07:57:27.436Z,10.91
2023-11-06T08:02:30.828Z,10.98
2023-11-06T08:07:32.547Z,11.06
2023-11-06T08:12:34.865Z,11.15
2023-11-06T08:17:37.096Z,11.20
2023-11-06T08:22:39.203Z,11.31
2023-11-06T08:27:40.921Z,11.34
2023-11-06T08:32:42.727Z,11.44
2023-11-06T08:37:44.408Z,11.60
2023-11-06T08:42:46.366Z,11.68
2023-11-06T08:47:48.060Z,11.79
2023-11-06T08:52:49.822Z,11.78
2023-11-06T08:57:51.502Z,11.94
2023-11-06T09:02:53.274Z,12.02
2023-11-06T09:07:54.957Z,12.12
2023-11-06T09:12:58.528Z,12.24
2023-11-06T09:18:00.319Z,12.30
2023-11-06T09:23:02.306Z,12.41
2023-11-06T09:28:04.152Z,12.52
2023-11-06T09:33:06.527Z,12.59
2023-11-06T09:38:09.568Z,12.60
2023-11-06T09:43:12.210Z,12.60
2023-11-06T09:48:19.651Z,12.71
2023-11-06T09:53:24.256Z,12.76
2023-11-06T09:58:26.506Z,12.70
2023-11-06T10:03:28.999Z,12.83
2023-11-06T10:08:32.051Z,12.93
2023-11-06T10:13:51.258Z,12.97
2023-11-06T10:19:13.659Z,13.00
2023-11-06T10:24:16.897Z,13.05
2023-11-06T10:29:20.116Z,13.15
2023-11-06T10:34:29.852Z,13.20
2023-11-06T10:39:32.782Z,13.19
2023-11-06T10:44:36.070Z,13.16
2023-11-06T10:50:02.615Z,13.20
2023-11-06T10:55:12.371Z,13.30
2023-11-06T11:00:25.050Z,13.37
2023-11-06T11:05:32.898Z,13.54
2023-11-06T11:10:37.104Z,13.53
2023-11-06T11:15:42.268Z,13.66
2023-11-06T11:20:51.329Z,13.80
2023-11-06T11:26:05.357Z,13.84
2023-11-06T11:31:33.557Z,13.86
2023-11-06T11:36:37.116Z,13.90
2023-11-06T11:41:40.239Z,13.91
2023-11-06T11:46:48.865Z,13.91
2023-11-06T11:51:51.162Z,14.17
2023-11-06T11:56:53.349Z,14.31
2023-11-06T12:01:55.181Z,14.46
2023-11-06T12:06:59.496Z,14.50
2023-11-06T12:12:01.101Z,14.39
2023-11-06T12:17:07.979Z,14.31
2023-11-06T12:22:16.199Z,14.24
2023-11-06T12:27:19.445Z,14.30
2023-11-06T12:32:23.604Z,14.31
2023-11-06T12:37:25.945Z,14.33
2023-11-06T12:42:29.752Z,14.44
2023-11-06T12:47:35.687Z,14.45
2023-11-06T12:52:40.071Z,14.49
2023-11-06T12:57:44.716Z,14.62
2023-11-06T13:02:47.316Z,14.76
2023-11-06T13:07:52.739Z,14.83
2023-11-06T13:12:54.430Z,14.83
2023-11-06T13:17:56.748Z,14.86
2023-11-06T13:22:59.773Z,14.91
2023-11-06T13:28:02.752Z,14.91
2023-11-06T13:33:08.572Z,14.84
2023-11-06T13:38:10.622Z,14.90
2023-11-06T13:43:12.961Z,14.95
2023-11-06T13:48:14.640Z,15.00
2023-11-06T13:53:25.994Z,15.00
2023-11-06T13:58:29.268Z,14.97
2023-11-06T14:03:31.016Z,14.95
2023-11-06T14:08:33.585Z,14.94
2023-11-06T14:13:35.178Z,14.98
2023-11-06T14:18:36.820Z,15.04
2023-11-06T14:23:38.804Z,15.03
2023-11-06T14:28:40.470Z,15.03
2023-11-06T14:33:42.086Z,14.97
2023-11-06T14:38:43.813Z,14.94
2023-11-06T14:43:45.439Z,14.97
2023-11-06T14:48:50.781Z,14.93
2023-11-06T14:53:58.492Z,14.95
2023-11-06T14:59:00.556Z,15.01
2023-11-06T15:04:03.047Z,15.04
2023-11-06T15:09:04.801Z,15.05
2023-11-06T15:14:07.548Z,15.06
2023-11-06T15:19:11.234Z,15.04
2023-11-06T15:24:14.276Z,15.03
2023-11-06T15:29:16.056Z,14.96
2023-11-06T15:34:18.284Z,14.94
2023-11-06T15:39:22.461Z,14.90
2023-11-06T15:44:24.670Z,14.86
2023-11-06T15:49:27.803Z,14.80
2023-11-06T15:54:34.262Z,14.76
2023-11-06T15:59:36.125Z,14.73
2023-11-06T16:04:38.000Z,14.71
2023-11-06T16:09:43.113Z,14.70
2023-11-06T16:14:45.247Z,14.69
2023-11-06T16:19:46.895Z,14.68
2023-11-06T16:24:48.483Z,14.62
2023-11-06T16:29:50.589Z,14.45
2023-11-06T16:34:52.504Z,14.06
2023-11-06T16:39:54.240Z,13.91
2023-11-06T16:44:55.806Z,13.87
2023-11-06T16:49:57.508Z,13.87
2023-11-06T16:54:59.243Z,13.79
2023-11-06T17:00:00.856Z,13.76
2023-11-06T17:05:05.991Z,13.73
2023-11-06T17:10:08.281Z,13.66
2023-11-06T17:15:11.409Z,13.60
2023-11-06T17:20:14.111Z,13.59
2023-11-06T17:25:15.965Z,13.55
2023-11-06T17:30:17.789Z,13.50
2023-11-06T17:35:19.536Z,13.48
2023-11-06T17:40:21.328Z,13.43
2023-11-06T17:45:22.967Z,13.40
2023-11-06T17:50:24.545Z,13.40
2023-11-06T17:55:26.886Z,13.39
2023-11-06T18:00:28.548Z,13.37
2023-11-06T18:05:30.192Z,13.32
2023-11-06T18:10:31.785Z,13.29
2023-11-06T18:15:33.539Z,13.25
2023-11-06T18:20:35.116Z,13.23
2023-11-06T18:25:37.071Z,13.21
2023-11-06T18:30:40.777Z,13.20
2023-11-06T18:35:43.527Z,13.20
2023-11-06T18:40:47.598Z,13.19
2023-11-06T18:45:49.310Z,13.16
2023-11-06T18:50:50.937Z,13.13
2023-11-06T18:55:52.800Z,13.06
2023-11-06T19:00:54.411Z,12.98
2023-11-06T19:05:56.516Z,12.94
2023-11-06T19:11:00.905Z,12.86
2023-11-06T19:16:03.390Z,12.79
2023-11-06T19:21:05.606Z,12.75
2023-11-06T19:26:07.231Z,12.70
2023-11-06T19:31:09.080Z,12.68
2023-11-06T19:36:11.541Z,12.61
2023-11-06T19:41:13.205Z,12.55
2023-11-06T19:46:15.416Z,12.47
2023-11-06T19:51:17.045Z,12.38
2023-11-06T19:56:19.347Z,12.33
2023-11-06T20:01:21.024Z,12.25
2023-11-06T20:06:22.873Z,12.23
2023-11-06T20:11:24.553Z,12.16
2023-11-06T20:16:26.267Z,12.21
2023-11-06T20:21:32.658Z,12.17
2023-11-06T20:26:34.705Z,12.17
2023-11-06T20:31:36.538Z,12.19
2023-11-06T20:36:42.709Z,12.11
2023-11-06T20:41:45.567Z,12.10
2023-11-06T20:46:47.976Z,12.10
2023-11-06T20:51:49.920Z,12.10
2023-11-06T20:56:51.535Z,12.04
2023-11-06T21:01:53.153Z,12.04
2023-11-06T21:06:54.738Z,12.01
2023-11-06T21:11:56.337Z,12.05
2023-11-06T21:16:57.959Z,12.06
2023-11-06T21:21:59.633Z,12.09
2023-11-06T21:27:01.454Z,12.12
2023-11-06T21:32:04.067Z,12.10
2023-11-06T21:37:05.933Z,12.07
2023-11-06T21:42:08.367Z,12.02
2023-11-06T21:47:12.029Z,11.96
2023-11-06T21:52:13.654Z,11.92
2023-11-06T21:57:15.240Z,11.91
2023-11-06T22:02:16.909Z,11.83
2023-11-06T22:07:19.302Z,11.83
2023-11-06T22:12:21.101Z,11.80
2023-11-06T22:17:22.771Z,11.76
2023-11-06T22:22:24.445Z,11.80
2023-11-06T22:27:27.407Z,11.83
2023-11-06T22:32:29.067Z,11.83
2023-11-06T22:37:30.704Z,11.88
2023-11-06T22:42:34.486Z,11.85
2023-11-06T22:47:36.228Z,11.79
2023-11-06T22:52:39.521Z,11.73
2023-11-06T22:57:41.771Z,11.61
2023-11-06T23:02:43.797Z,11.56
2023-11-06T23:07:45.486Z,11.57
2023-11-06T23:12:47.157Z,11.53
2023-11-06T23:17:49.027Z,11.52
2023-11-06T23:22:50.736Z,11.51
2023-11-06T23:27:53.560Z,11.52
2023-11-06T23:32:55.280Z,11.50
2023-11-06T23:37:57.075Z,11.48
2023-11-06T23:42:58.726Z,11.44
2023-11-06T23:48:00.700Z,11.38
2023-11-06T23:53:03.419Z,11.38
2023-11-06T23:58:05.078Z,11.32
